Meath Environmental Platform

Observations for Trim Market St

Time AQI Temp °C Hum % Pres Pa CO μg/m³ H₂S μg/m³ NO μg/m³ NO₂ μg/m³ O₃ μg/m³ SO₂ μg/m³ PM1 μg/m³ PM2.5 μg/m³ PM10 μg/m³
Monday 13 July 2026
23:43 1 18.1 62 57,758 0.01 0 0 8.58 24.5 0 1.43 3.91 6.86
23:42 1 18.1 62 57,762 0 0 0 6.79 25.84 0 1.43 3.42 5.51
23:41 1 18.1 62 57,764 0 0 0 7.39 25.15 0 0.71 2.92 4.17
23:40 1 18.1 62 57,768 0 0 0 6.69 25.76 0 1.43 2.92 4.84
23:38 1 18.2 62 57,773 0 0 0 7.98 27.28 0 1.43 2.92 4.84
23:34 1 18.2 62 57,792 0 0 0 8.4 24.53 0 0.71 2.44 4.16
23:33 1 18.3 62 57,795 0 0 0 7.38 25.37 0 1.43 2.94 4.15
23:32 1 18.3 62 57,799 0 0 0 8.99 28.28 0 0.71 2.94 4.15
23:31 1 18.3 62 57,806 0 0 0 7.71 23.5 0 2.14 3.94 5.5
23:29 1 18.3 62 57,815 0 0 0 7.63 26.65 0 2.14 3.45 4.82
23:28 1 18.4 62 57,820 0 0 0 8.1 27.09 0 1.43 2.96 4.14
23:26 1 18.4 61 57,829 0 0 0 7.54 27.93 0 1.43 2.97 4.13
23:20 1 18.5 61 57,862 0 0 0 8.57 28.61 0 1.43 3.99 5.48
23:17 1 18.5 60 57,883 0 0 0 8.8 27.53 0 2.14 4.01 6.16
23:13 1 18.6 60 57,895 0 0 0 9.6 28.02 0 1.43 3.02 4.1
23:12 1 18.6 60 57,903 0 0 0 9.11 31.48 0 1.43 3.52 6.84
23:11 1 18.6 60 57,907 0 0 0 8.63 30.03 0 1.43 3.03 4.78
23:10 1 18.7 60 57,913 0 0 0 8.01 30.02 0 1.43 2.53 3.4
23:09 1 18.7 60 57,919 0 0 0 9.12 30.6 0 0.71 2.54 3.4
23:08 1 18.7 60 57,923 0 0 0 8.44 28.55 0 1.43 4.05 5.46